createdAt,value
2019-02-11T00:04:20.414Z,1.30
2019-02-11T00:09:22.849Z,1.30
2019-02-11T00:14:25.282Z,1.20
2019-02-11T00:19:27.712Z,1.80
2019-02-11T00:24:30.152Z,1.83
2019-02-11T00:29:32.590Z,2.63
2019-02-11T00:34:35.027Z,1.70
2019-02-11T00:39:37.453Z,1.53
2019-02-11T00:44:39.889Z,1.40
2019-02-11T00:49:42.315Z,1.40
2019-02-11T00:54:44.750Z,1.53
2019-02-11T00:59:47.198Z,1.40
2019-02-11T01:04:49.641Z,1.30
2019-02-11T01:09:52.134Z,1.60
2019-02-11T01:14:54.571Z,1.30
2019-02-11T01:19:57.007Z,1.20
2019-02-11T01:24:59.442Z,1.10
2019-02-11T01:30:01.871Z,1.20
2019-02-11T01:35:04.306Z,1.00
2019-02-11T01:40:06.748Z,1.30
2019-02-11T01:45:09.184Z,1.10
2019-02-11T01:50:11.627Z,1.30
2019-02-11T01:55:14.107Z,1.30
2019-02-11T02:00:18.389Z,1.50
2019-02-11T02:05:20.769Z,1.30
2019-02-11T02:10:23.202Z,1.20
2019-02-11T02:15:25.647Z,1.50
2019-02-11T02:20:28.057Z,1.30
2019-02-11T02:25:30.497Z,1.80
2019-02-11T02:30:32.925Z,1.70
2019-02-11T02:35:35.360Z,1.60
2019-02-11T02:40:37.806Z,1.90
2019-02-11T02:45:40.294Z,2.37
2019-02-11T02:50:42.713Z,2.00
2019-02-11T02:55:45.138Z,2.47
2019-02-11T03:00:47.567Z,2.33
2019-02-11T03:05:49.999Z,2.10
2019-02-11T03:10:52.475Z,1.87
2019-02-11T03:15:54.893Z,2.30
2019-02-11T03:20:57.322Z,2.30
2019-02-11T03:25:59.769Z,2.70
2019-02-11T03:31:02.204Z,2.10
2019-02-11T03:36:04.628Z,2.10
2019-02-11T03:41:07.043Z,2.23
2019-02-11T03:46:09.479Z,2.20
2019-02-11T03:51:12.014Z,2.37
2019-02-11T03:56:14.439Z,2.30
2019-02-11T04:01:16.887Z,2.23
2019-02-11T04:06:19.321Z,2.10
2019-02-11T04:11:21.746Z,2.13
2019-02-11T04:16:24.177Z,2.10
2019-02-11T04:21:26.605Z,2.50
2019-02-11T04:26:29.030Z,2.30
2019-02-11T04:31:31.467Z,2.30
2019-02-11T04:36:33.920Z,2.27
2019-02-11T04:41:36.358Z,1.97
2019-02-11T04:46:38.796Z,2.20
2019-02-11T04:51:41.255Z,2.13
2019-02-11T04:56:43.682Z,1.87
2019-02-11T05:01:46.140Z,2.13
2019-02-11T05:06:48.571Z,2.20
2019-02-11T05:11:51.012Z,2.10
2019-02-11T05:16:53.449Z,2.33
2019-02-11T05:21:55.879Z,2.27
2019-02-11T05:26:58.314Z,2.20
2019-02-11T05:32:00.746Z,2.60
2019-02-11T05:37:03.191Z,3.50
2019-02-11T05:42:05.631Z,3.10
2019-02-11T05:47:08.070Z,2.93
2019-02-11T05:52:10.496Z,2.30
2019-02-11T05:57:12.931Z,2.30
2019-02-11T06:02:15.387Z,2.40
2019-02-11T06:07:17.830Z,2.47
2019-02-11T06:12:20.294Z,6.83
2019-02-11T06:17:22.744Z,3.90
2019-02-11T06:22:25.182Z,2.60
2019-02-11T06:27:27.678Z,3.47
2019-02-11T06:32:30.115Z,3.77
2019-02-11T06:37:32.559Z,3.10
2019-02-11T06:42:34.988Z,2.67
2019-02-11T06:47:37.492Z,2.53
2019-02-11T06:52:39.865Z,2.40
2019-02-11T06:57:42.305Z,2.57
2019-02-11T07:02:44.740Z,3.30
2019-02-11T07:07:47.181Z,4.57
2019-02-11T07:12:49.616Z,3.10
2019-02-11T07:17:52.076Z,4.40
2019-02-11T07:22:54.493Z,3.00
2019-02-11T07:27:56.944Z,3.30
2019-02-11T07:32:59.393Z,3.27
2019-02-11T07:38:01.834Z,2.93
2019-02-11T07:43:04.266Z,2.40
2019-02-11T07:48:06.698Z,2.83
2019-02-11T07:53:09.127Z,2.63
2019-02-11T07:58:11.552Z,3.03
2019-02-11T08:03:14.000Z,3.33
2019-02-11T08:08:16.438Z,2.80
2019-02-11T08:13:18.877Z,2.47
2019-02-11T08:18:21.324Z,2.37
2019-02-11T08:23:23.751Z,2.40
2019-02-11T08:28:26.187Z,2.77
2019-02-11T08:33:30.470Z,2.50
2019-02-11T08:38:31.088Z,2.50
2019-02-11T08:43:33.512Z,2.70
2019-02-11T08:48:35.950Z,2.60
2019-02-11T08:53:38.387Z,3.03
2019-02-11T08:58:40.846Z,2.70
2019-02-11T09:03:43.281Z,2.43
2019-02-11T09:08:45.723Z,3.20
2019-02-11T09:13:48.162Z,3.10
2019-02-11T09:18:50.672Z,4.33
2019-02-11T09:23:53.103Z,2.93
2019-02-11T09:28:55.564Z,2.30
2019-02-11T09:33:58.012Z,2.37
2019-02-11T09:39:00.464Z,2.17
2019-02-11T09:44:02.917Z,2.30
2019-02-11T09:49:05.357Z,2.20
2019-02-11T09:54:07.824Z,2.40
2019-02-11T09:59:10.299Z,2.23
2019-02-11T10:04:12.752Z,2.17
2019-02-11T10:09:15.224Z,1.90
2019-02-11T10:14:17.670Z,2.47
2019-02-11T10:19:20.112Z,2.40
2019-02-11T10:24:22.571Z,2.63
2019-02-11T10:29:25.024Z,2.23
2019-02-11T10:34:27.456Z,2.20
2019-02-11T10:39:29.915Z,2.40
2019-02-11T10:44:32.366Z,2.30
2019-02-11T10:49:34.841Z,2.50
2019-02-11T10:54:37.277Z,2.60
2019-02-11T10:59:39.706Z,2.40
2019-02-11T11:04:42.169Z,3.63
2019-02-11T11:09:44.638Z,2.73
2019-02-11T11:14:47.080Z,3.33
2019-02-11T11:19:49.515Z,2.60
2019-02-11T11:24:51.955Z,3.10
2019-02-11T11:29:54.397Z,2.50
2019-02-11T11:34:56.845Z,2.00
2019-02-11T11:39:59.279Z,2.83
2019-02-11T11:45:01.815Z,2.53
2019-02-11T11:50:04.237Z,2.40
2019-02-11T11:55:12.615Z,2.13
2019-02-11T12:00:17.781Z,2.23
2019-02-11T12:05:20.220Z,2.50
2019-02-11T12:10:22.738Z,2.60
2019-02-11T12:15:25.148Z,1.90
2019-02-11T12:20:27.584Z,2.63
2019-02-11T12:25:30.033Z,2.40
2019-02-11T12:30:32.518Z,2.93
2019-02-11T12:35:34.932Z,3.50
2019-02-11T12:40:37.357Z,3.13
2019-02-11T12:45:39.833Z,3.47
2019-02-11T12:50:42.259Z,3.23
2019-02-11T12:55:44.704Z,2.90
2019-02-11T13:00:47.157Z,2.73
2019-02-11T13:05:49.601Z,2.73
2019-02-11T13:10:52.051Z,4.30
2019-02-11T13:16:00.912Z,3.30
2019-02-11T13:20:56.950Z,2.60
2019-02-11T13:25:59.385Z,2.87
2019-02-11T13:31:01.832Z,2.73
2019-02-11T13:36:04.304Z,6.50
2019-02-11T13:41:06.729Z,7.40
2019-02-11T13:46:09.177Z,9.30
2019-02-11T13:51:11.634Z,5.93
2019-02-11T13:56:14.113Z,5.20
2019-02-11T14:01:16.568Z,3.60
2019-02-11T14:06:19.022Z,3.10
2019-02-11T14:11:21.462Z,2.60
2019-02-11T14:16:23.988Z,2.77
2019-02-11T14:21:26.339Z,1.93
2019-02-11T14:26:28.788Z,2.50
2019-02-11T14:31:31.464Z,2.87
2019-02-11T14:36:33.767Z,3.40
2019-02-11T14:41:36.249Z,3.70
2019-02-11T14:46:38.684Z,3.87
2019-02-11T14:51:41.268Z,3.30
2019-02-11T14:56:43.706Z,3.07
2019-02-11T15:01:46.181Z,2.70
2019-02-11T15:06:48.712Z,2.20
2019-02-11T15:11:51.155Z,4.07
2019-02-11T15:16:53.590Z,2.50
2019-02-11T15:21:56.020Z,2.53
2019-02-11T15:26:58.461Z,2.27
2019-02-11T15:32:01.014Z,2.30
2019-02-11T15:37:03.459Z,2.30
2019-02-11T15:42:05.883Z,2.20
2019-02-11T15:47:08.351Z,2.73
2019-02-11T15:52:10.806Z,4.03
2019-02-11T15:57:13.254Z,4.00
2019-02-11T16:02:15.695Z,4.80
2019-02-11T16:07:18.148Z,4.77
2019-02-11T16:12:20.592Z,4.17
2019-02-11T16:17:23.038Z,3.80
2019-02-11T16:22:25.490Z,4.30
2019-02-11T16:27:28.664Z,4.70
2019-02-11T16:32:30.383Z,5.00
2019-02-11T16:37:32.831Z,7.37
2019-02-11T16:42:35.276Z,6.50
2019-02-11T16:47:37.728Z,6.13
2019-02-11T16:52:40.193Z,5.60
2019-02-11T16:57:43.190Z,5.27
2019-02-11T17:02:45.632Z,7.53
2019-02-11T17:07:48.092Z,7.00
2019-02-11T17:12:50.562Z,16.37
2019-02-11T17:17:54.268Z,11.50
2019-02-11T17:22:56.702Z,12.33
2019-02-11T17:27:59.177Z,11.50
2019-02-11T17:33:01.633Z,18.17
2019-02-11T17:38:04.107Z,26.47
2019-02-11T17:43:06.583Z,15.43
2019-02-11T17:48:09.063Z,15.57
2019-02-11T17:53:11.518Z,19.70
2019-02-11T17:58:14.010Z,16.10
2019-02-11T18:03:16.466Z,6.17
2019-02-11T18:08:18.966Z,10.00
2019-02-11T18:13:21.436Z,13.47
2019-02-11T18:18:23.899Z,12.57
2019-02-11T18:23:26.313Z,7.10
2019-02-11T18:28:28.769Z,6.93
2019-02-11T18:33:31.240Z,8.53
2019-02-11T18:38:33.703Z,6.67
2019-02-11T18:43:36.158Z,6.97
2019-02-11T18:48:38.646Z,7.20
2019-02-11T18:53:41.117Z,7.27
2019-02-11T18:58:43.570Z,9.43
2019-02-11T19:03:46.043Z,5.27
2019-02-11T19:08:48.505Z,6.43
2019-02-11T19:13:52.835Z,4.00
2019-02-11T19:18:55.281Z,4.07
2019-02-11T19:23:57.714Z,4.07
2019-02-11T19:29:00.203Z,9.17
2019-02-11T19:34:02.646Z,6.57
2019-02-11T19:39:05.119Z,15.80
2019-02-11T19:44:07.604Z,6.87
2019-02-11T19:49:10.057Z,5.93
2019-02-11T19:54:12.508Z,3.93
2019-02-11T19:59:14.960Z,6.67
2019-02-11T20:04:17.416Z,7.30
2019-02-11T20:09:19.859Z,6.50
2019-02-11T20:14:22.444Z,6.17
2019-02-11T20:19:24.907Z,5.97
2019-02-11T20:24:27.388Z,6.67
2019-02-11T20:29:29.838Z,7.33
2019-02-11T20:34:32.283Z,9.57
2019-02-11T20:39:34.739Z,9.57
2019-02-11T20:44:37.733Z,8.87
2019-02-11T20:49:40.218Z,9.77
2019-02-11T20:54:42.677Z,9.70
2019-02-11T20:59:45.128Z,9.43
2019-02-11T21:04:48.015Z,9.77
2019-02-11T21:09:50.491Z,8.97
2019-02-11T21:14:52.941Z,9.27
2019-02-11T21:19:55.406Z,8.50
2019-02-11T21:24:57.875Z,9.30
2019-02-11T21:30:00.332Z,10.83
2019-02-11T21:35:02.755Z,11.93
2019-02-11T21:40:05.220Z,11.83
2019-02-11T21:45:10.378Z,9.97
2019-02-11T21:50:12.824Z,10.60
2019-02-11T21:55:20.998Z,15.27
2019-02-11T22:00:23.439Z,12.90
2019-02-11T22:05:25.996Z,13.03
2019-02-11T22:10:28.524Z,11.07
2019-02-11T22:15:30.932Z,11.73
2019-02-11T22:20:34.787Z,12.07
2019-02-11T22:25:35.848Z,11.70
2019-02-11T22:30:38.312Z,12.27
2019-02-11T22:35:40.767Z,11.10
2019-02-11T22:40:43.209Z,12.53
2019-02-11T22:45:45.652Z,12.03
2019-02-11T22:50:48.113Z,10.23
2019-02-11T22:55:50.552Z,8.97
2019-02-11T23:00:53.249Z,8.80
2019-02-11T23:05:55.687Z,8.07
2019-02-11T23:10:58.121Z,8.93
2019-02-11T23:16:00.575Z,8.00
2019-02-11T23:21:03.042Z,8.30
2019-02-11T23:26:05.498Z,8.57
2019-02-11T23:31:07.940Z,8.10
2019-02-11T23:36:10.381Z,6.80
2019-02-11T23:41:12.814Z,6.50
2019-02-11T23:46:15.249Z,5.13
2019-02-11T23:51:17.686Z,5.17
2019-02-11T23:56:20.121Z,4.93
